sensor_id;sensor_type;location;lat;lon;timestamp;temperature;humidity
77985;DHT22;67177;47.240;-1.546;2023-02-07T00:00:20;3.80;65.70
77985;DHT22;67177;47.240;-1.546;2023-02-07T00:02:47;3.80;65.60
77985;DHT22;67177;47.240;-1.546;2023-02-07T00:05:14;3.80;65.40
77985;DHT22;67177;47.240;-1.546;2023-02-07T00:07:41;3.80;65.50
77985;DHT22;67177;47.240;-1.546;2023-02-07T00:10:07;3.80;65.40
77985;DHT22;67177;47.240;-1.546;2023-02-07T00:12:33;3.80;65.30
77985;DHT22;67177;47.240;-1.546;2023-02-07T00:14:59;3.80;65.50
77985;DHT22;67177;47.240;-1.546;2023-02-07T00:17:28;3.70;65.60
77985;DHT22;67177;47.240;-1.546;2023-02-07T00:19:53;3.70;65.60
77985;DHT22;67177;47.240;-1.546;2023-02-07T00:22:19;3.80;65.40
77985;DHT22;67177;47.240;-1.546;2023-02-07T00:24:45;3.70;65.40
77985;DHT22;67177;47.240;-1.546;2023-02-07T00:27:10;3.70;65.50
77985;DHT22;67177;47.240;-1.546;2023-02-07T00:29:36;3.70;65.60
77985;DHT22;67177;47.240;-1.546;2023-02-07T00:32:02;3.70;65.60
77985;DHT22;67177;47.240;-1.546;2023-02-07T00:34:28;3.70;65.70
77985;DHT22;67177;47.240;-1.546;2023-02-07T00:36:56;3.70;65.70
77985;DHT22;67177;47.240;-1.546;2023-02-07T00:39:21;3.70;65.70
77985;DHT22;67177;47.240;-1.546;2023-02-07T00:41:47;3.70;65.60
77985;DHT22;67177;47.240;-1.546;2023-02-07T00:44:13;3.70;65.70
77985;DHT22;67177;47.240;-1.546;2023-02-07T00:46:38;3.70;65.70
77985;DHT22;67177;47.240;-1.546;2023-02-07T00:49:05;3.60;65.60
77985;DHT22;67177;47.240;-1.546;2023-02-07T00:51:31;3.70;65.60
77985;DHT22;67177;47.240;-1.546;2023-02-07T00:53:58;3.70;65.50
77985;DHT22;67177;47.240;-1.546;2023-02-07T00:56:26;3.60;65.60
77985;DHT22;67177;47.240;-1.546;2023-02-07T00:58:52;3.70;65.50
77985;DHT22;67177;47.240;-1.546;2023-02-07T01:01:18;3.60;65.50
77985;DHT22;67177;47.240;-1.546;2023-02-07T01:03:44;3.60;65.50
77985;DHT22;67177;47.240;-1.546;2023-02-07T01:06:10;3.60;65.50
77985;DHT22;67177;47.240;-1.546;2023-02-07T01:08:37;3.60;65.50
77985;DHT22;67177;47.240;-1.546;2023-02-07T01:11:05;3.60;65.40
77985;DHT22;67177;47.240;-1.546;2023-02-07T01:13:32;3.60;65.60
77985;DHT22;67177;47.240;-1.546;2023-02-07T01:15:58;3.50;65.60
77985;DHT22;67177;47.240;-1.546;2023-02-07T01:18:24;3.50;65.40
77985;DHT22;67177;47.240;-1.546;2023-02-07T01:20:49;3.50;65.30
77985;DHT22;67177;47.240;-1.546;2023-02-07T01:23:15;3.50;65.10
77985;DHT22;67177;47.240;-1.546;2023-02-07T01:25:41;3.50;65.10
77985;DHT22;67177;47.240;-1.546;2023-02-07T01:28:08;3.50;65.30
77985;DHT22;67177;47.240;-1.546;2023-02-07T01:30:34;3.50;65.40
77985;DHT22;67177;47.240;-1.546;2023-02-07T01:33:00;3.50;65.30
77985;DHT22;67177;47.240;-1.546;2023-02-07T01:35:26;3.40;65.30
77985;DHT22;67177;47.240;-1.546;2023-02-07T01:37:51;3.40;65.20
77985;DHT22;67177;47.240;-1.546;2023-02-07T01:40:17;3.40;65.10
77985;DHT22;67177;47.240;-1.546;2023-02-07T01:42:43;3.40;65.00
77985;DHT22;67177;47.240;-1.546;2023-02-07T01:45:28;3.40;64.90
77985;DHT22;67177;47.240;-1.546;2023-02-07T01:47:58;3.40;64.80
77985;DHT22;67177;47.240;-1.546;2023-02-07T01:50:24;3.40;64.90
77985;DHT22;67177;47.240;-1.546;2023-02-07T01:52:50;3.40;64.90
77985;DHT22;67177;47.240;-1.546;2023-02-07T01:55:31;3.40;65.00
77985;DHT22;67177;47.240;-1.546;2023-02-07T01:57:58;3.40;65.00
77985;DHT22;67177;47.240;-1.546;2023-02-07T02:00:26;3.30;64.90
77985;DHT22;67177;47.240;-1.546;2023-02-07T02:02:51;3.30;65.10
77985;DHT22;67177;47.240;-1.546;2023-02-07T02:05:18;3.30;65.00
77985;DHT22;67177;47.240;-1.546;2023-02-07T02:07:43;3.30;64.90
77985;DHT22;67177;47.240;-1.546;2023-02-07T02:10:20;3.30;64.90
77985;DHT22;67177;47.240;-1.546;2023-02-07T02:13:10;3.30;64.80
77985;DHT22;67177;47.240;-1.546;2023-02-07T02:35:08;3.30;64.50
77985;DHT22;67177;47.240;-1.546;2023-02-07T02:37:45;3.20;64.70
77985;DHT22;67177;47.240;-1.546;2023-02-07T02:40:32;3.20;64.70
77985;DHT22;67177;47.240;-1.546;2023-02-07T02:43:08;3.20;64.80
77985;DHT22;67177;47.240;-1.546;2023-02-07T02:45:41;3.20;64.70
77985;DHT22;67177;47.240;-1.546;2023-02-07T02:48:09;3.20;64.60
77985;DHT22;67177;47.240;-1.546;2023-02-07T02:50:36;3.20;64.50
77985;DHT22;67177;47.240;-1.546;2023-02-07T02:53:01;3.20;64.60
77985;DHT22;67177;47.240;-1.546;2023-02-07T02:55:47;3.20;64.50
77985;DHT22;67177;47.240;-1.546;2023-02-07T02:58:27;3.20;64.60
77985;DHT22;67177;47.240;-1.546;2023-02-07T03:01:04;3.10;64.60
77985;DHT22;67177;47.240;-1.546;2023-02-07T03:03:53;3.20;64.60
77985;DHT22;67177;47.240;-1.546;2023-02-07T03:06:47;3.10;64.50
77985;DHT22;67177;47.240;-1.546;2023-02-07T03:15:18;3.10;64.60
77985;DHT22;67177;47.240;-1.546;2023-02-07T03:17:53;3.10;64.70
77985;DHT22;67177;47.240;-1.546;2023-02-07T03:20:38;3.00;64.70
77985;DHT22;67177;47.240;-1.546;2023-02-07T03:23:05;3.10;64.70
77985;DHT22;67177;47.240;-1.546;2023-02-07T03:25:34;3.00;64.80
77985;DHT22;67177;47.240;-1.546;2023-02-07T03:28:04;3.00;64.80
77985;DHT22;67177;47.240;-1.546;2023-02-07T03:30:32;3.00;64.80
77985;DHT22;67177;47.240;-1.546;2023-02-07T03:33:01;3.10;64.90
77985;DHT22;67177;47.240;-1.546;2023-02-07T03:38:13;3.00;65.00
77985;DHT22;67177;47.240;-1.546;2023-02-07T03:40:44;3.00;65.00
77985;DHT22;67177;47.240;-1.546;2023-02-07T03:43:23;2.90;65.10
77985;DHT22;67177;47.240;-1.546;2023-02-07T03:45:49;2.90;65.10
77985;DHT22;67177;47.240;-1.546;2023-02-07T03:48:15;3.00;65.00
77985;DHT22;67177;47.240;-1.546;2023-02-07T03:50:41;2.90;65.10
77985;DHT22;67177;47.240;-1.546;2023-02-07T03:53:07;3.00;65.20
77985;DHT22;67177;47.240;-1.546;2023-02-07T03:55:33;3.00;65.10
77985;DHT22;67177;47.240;-1.546;2023-02-07T03:57:59;3.00;65.20
77985;DHT22;67177;47.240;-1.546;2023-02-07T04:00:25;3.00;65.10
77985;DHT22;67177;47.240;-1.546;2023-02-07T04:02:51;3.00;65.30
77985;DHT22;67177;47.240;-1.546;2023-02-07T04:05:16;2.90;65.40
77985;DHT22;67177;47.240;-1.546;2023-02-07T04:07:42;2.90;65.40
77985;DHT22;67177;47.240;-1.546;2023-02-07T04:10:09;2.90;65.70
77985;DHT22;67177;47.240;-1.546;2023-02-07T04:12:34;2.80;65.70
77985;DHT22;67177;47.240;-1.546;2023-02-07T04:15:05;2.80;65.70
77985;DHT22;67177;47.240;-1.546;2023-02-07T04:17:31;2.80;65.70
77985;DHT22;67177;47.240;-1.546;2023-02-07T04:19:57;2.80;65.60
77985;DHT22;67177;47.240;-1.546;2023-02-07T04:22:23;2.80;65.60
77985;DHT22;67177;47.240;-1.546;2023-02-07T04:24:48;2.80;65.70
77985;DHT22;67177;47.240;-1.546;2023-02-07T04:27:14;2.80;65.70
77985;DHT22;67177;47.240;-1.546;2023-02-07T04:29:40;2.80;65.60
77985;DHT22;67177;47.240;-1.546;2023-02-07T04:32:05;2.80;65.80
77985;DHT22;67177;47.240;-1.546;2023-02-07T04:34:31;2.80;65.90
77985;DHT22;67177;47.240;-1.546;2023-02-07T04:36:57;2.80;65.90
77985;DHT22;67177;47.240;-1.546;2023-02-07T04:39:22;2.80;66.00
77985;DHT22;67177;47.240;-1.546;2023-02-07T04:41:48;2.80;66.10
77985;DHT22;67177;47.240;-1.546;2023-02-07T04:44:13;2.80;65.90
77985;DHT22;67177;47.240;-1.546;2023-02-07T04:46:39;2.80;66.00
77985;DHT22;67177;47.240;-1.546;2023-02-07T04:49:05;2.80;66.00
77985;DHT22;67177;47.240;-1.546;2023-02-07T04:51:30;2.70;66.10
77985;DHT22;67177;47.240;-1.546;2023-02-07T04:53:57;2.70;66.10
77985;DHT22;67177;47.240;-1.546;2023-02-07T04:56:23;2.70;66.10
77985;DHT22;67177;47.240;-1.546;2023-02-07T04:58:49;2.80;66.00
77985;DHT22;67177;47.240;-1.546;2023-02-07T05:01:15;2.70;66.30
77985;DHT22;67177;47.240;-1.546;2023-02-07T05:03:40;2.70;66.40
77985;DHT22;67177;47.240;-1.546;2023-02-07T05:06:06;2.70;66.40
77985;DHT22;67177;47.240;-1.546;2023-02-07T05:08:32;2.70;66.50
77985;DHT22;67177;47.240;-1.546;2023-02-07T05:10:58;2.70;66.50
77985;DHT22;67177;47.240;-1.546;2023-02-07T05:13:24;2.70;66.40
77985;DHT22;67177;47.240;-1.546;2023-02-07T05:15:50;2.60;66.40
77985;DHT22;67177;47.240;-1.546;2023-02-07T05:18:16;2.60;66.60
77985;DHT22;67177;47.240;-1.546;2023-02-07T05:20:42;2.50;66.70
77985;DHT22;67177;47.240;-1.546;2023-02-07T05:23:08;2.50;66.80
77985;DHT22;67177;47.240;-1.546;2023-02-07T05:25:33;2.50;66.90
77985;DHT22;67177;47.240;-1.546;2023-02-07T05:27:59;2.50;66.80
77985;DHT22;67177;47.240;-1.546;2023-02-07T05:30:24;2.50;66.70
77985;DHT22;67177;47.240;-1.546;2023-02-07T05:32:50;2.50;66.80
77985;DHT22;67177;47.240;-1.546;2023-02-07T05:35:38;2.50;66.80
77985;DHT22;67177;47.240;-1.546;2023-02-07T05:38:07;2.50;66.90
77985;DHT22;67177;47.240;-1.546;2023-02-07T05:40:34;2.50;66.80
77985;DHT22;67177;47.240;-1.546;2023-02-07T05:43:00;2.50;66.70
77985;DHT22;67177;47.240;-1.546;2023-02-07T05:45:25;2.50;66.80
77985;DHT22;67177;47.240;-1.546;2023-02-07T05:47:51;2.50;66.80
77985;DHT22;67177;47.240;-1.546;2023-02-07T05:50:16;2.50;66.70
77985;DHT22;67177;47.240;-1.546;2023-02-07T05:52:42;2.50;66.70
77985;DHT22;67177;47.240;-1.546;2023-02-07T05:55:09;2.50;66.70
77985;DHT22;67177;47.240;-1.546;2023-02-07T05:57:34;2.50;66.70
77985;DHT22;67177;47.240;-1.546;2023-02-07T06:00:00;2.40;66.70
77985;DHT22;67177;47.240;-1.546;2023-02-07T06:02:26;2.50;66.80
77985;DHT22;67177;47.240;-1.546;2023-02-07T06:04:52;2.40;66.80
77985;DHT22;67177;47.240;-1.546;2023-02-07T06:07:17;2.40;66.90
77985;DHT22;67177;47.240;-1.546;2023-02-07T06:09:43;2.40;66.90
77985;DHT22;67177;47.240;-1.546;2023-02-07T06:12:09;2.40;67.10
77985;DHT22;67177;47.240;-1.546;2023-02-07T06:14:34;2.40;66.90
77985;DHT22;67177;47.240;-1.546;2023-02-07T06:17:00;2.40;66.80
77985;DHT22;67177;47.240;-1.546;2023-02-07T06:19:26;2.40;66.90
77985;DHT22;67177;47.240;-1.546;2023-02-07T06:21:51;2.40;66.80
77985;DHT22;67177;47.240;-1.546;2023-02-07T06:24:17;2.40;66.70
77985;DHT22;67177;47.240;-1.546;2023-02-07T06:26:43;2.40;66.80
77985;DHT22;67177;47.240;-1.546;2023-02-07T06:29:11;2.40;66.70
77985;DHT22;67177;47.240;-1.546;2023-02-07T06:31:36;2.40;66.80
77985;DHT22;67177;47.240;-1.546;2023-02-07T06:34:02;2.40;66.80
77985;DHT22;67177;47.240;-1.546;2023-02-07T06:36:27;2.30;66.80
77985;DHT22;67177;47.240;-1.546;2023-02-07T06:38:53;2.30;66.60
77985;DHT22;67177;47.240;-1.546;2023-02-07T06:41:21;2.30;66.50
77985;DHT22;67177;47.240;-1.546;2023-02-07T06:43:47;2.30;66.80
77985;DHT22;67177;47.240;-1.546;2023-02-07T06:46:12;2.30;67.00
77985;DHT22;67177;47.240;-1.546;2023-02-07T06:48:38;2.20;67.00
77985;DHT22;67177;47.240;-1.546;2023-02-07T06:51:04;2.20;67.00
77985;DHT22;67177;47.240;-1.546;2023-02-07T06:53:29;2.20;66.90
77985;DHT22;67177;47.240;-1.546;2023-02-07T06:55:55;2.20;67.10
77985;DHT22;67177;47.240;-1.546;2023-02-07T06:58:21;2.20;67.20
77985;DHT22;67177;47.240;-1.546;2023-02-07T07:00:46;2.20;67.30
77985;DHT22;67177;47.240;-1.546;2023-02-07T07:03:13;2.20;67.40
77985;DHT22;67177;47.240;-1.546;2023-02-07T07:05:40;2.20;67.30
77985;DHT22;67177;47.240;-1.546;2023-02-07T07:08:06;2.10;67.40
77985;DHT22;67177;47.240;-1.546;2023-02-07T07:10:32;2.10;67.50
77985;DHT22;67177;47.240;-1.546;2023-02-07T07:12:58;2.10;67.50
77985;DHT22;67177;47.240;-1.546;2023-02-07T07:15:23;2.10;67.50
77985;DHT22;67177;47.240;-1.546;2023-02-07T07:17:49;2.10;67.60
77985;DHT22;67177;47.240;-1.546;2023-02-07T07:20:15;2.10;67.50
77985;DHT22;67177;47.240;-1.546;2023-02-07T07:22:41;2.10;67.50
77985;DHT22;67177;47.240;-1.546;2023-02-07T07:25:07;2.10;67.40
77985;DHT22;67177;47.240;-1.546;2023-02-07T07:27:33;2.10;67.50
77985;DHT22;67177;47.240;-1.546;2023-02-07T07:29:59;2.00;67.60
77985;DHT22;67177;47.240;-1.546;2023-02-07T07:32:25;2.00;67.70
77985;DHT22;67177;47.240;-1.546;2023-02-07T07:34:50;2.00;67.80
77985;DHT22;67177;47.240;-1.546;2023-02-07T07:37:16;2.00;67.70
77985;DHT22;67177;47.240;-1.546;2023-02-07T07:39:42;2.00;67.80
77985;DHT22;67177;47.240;-1.546;2023-02-07T07:42:11;2.00;67.80
77985;DHT22;67177;47.240;-1.546;2023-02-07T07:44:36;2.00;67.70
77985;DHT22;67177;47.240;-1.546;2023-02-07T07:47:02;2.00;68.00
77985;DHT22;67177;47.240;-1.546;2023-02-07T07:49:28;2.00;68.10
77985;DHT22;67177;47.240;-1.546;2023-02-07T07:51:54;2.00;68.00
77985;DHT22;67177;47.240;-1.546;2023-02-07T07:54:19;2.00;68.10
77985;DHT22;67177;47.240;-1.546;2023-02-07T07:56:45;2.00;68.00
77985;DHT22;67177;47.240;-1.546;2023-02-07T07:59:11;2.00;67.90
77985;DHT22;67177;47.240;-1.546;2023-02-07T08:01:37;2.00;68.10
77985;DHT22;67177;47.240;-1.546;2023-02-07T08:04:03;2.00;68.00
77985;DHT22;67177;47.240;-1.546;2023-02-07T08:06:29;2.00;67.90
77985;DHT22;67177;47.240;-1.546;2023-02-07T08:08:55;2.10;67.90
77985;DHT22;67177;47.240;-1.546;2023-02-07T08:11:21;2.10;68.00
77985;DHT22;67177;47.240;-1.546;2023-02-07T08:13:47;2.10;68.00
77985;DHT22;67177;47.240;-1.546;2023-02-07T08:16:14;2.20;68.20
77985;DHT22;67177;47.240;-1.546;2023-02-07T08:18:40;2.20;68.00
77985;DHT22;67177;47.240;-1.546;2023-02-07T08:21:05;2.20;68.00
77985;DHT22;67177;47.240;-1.546;2023-02-07T08:23:32;2.20;68.10
77985;DHT22;67177;47.240;-1.546;2023-02-07T08:25:58;2.20;68.10
77985;DHT22;67177;47.240;-1.546;2023-02-07T08:28:24;2.30;68.10
77985;DHT22;67177;47.240;-1.546;2023-02-07T08:30:50;2.30;68.00
77985;DHT22;67177;47.240;-1.546;2023-02-07T08:33:16;2.30;68.00
77985;DHT22;67177;47.240;-1.546;2023-02-07T08:35:42;2.30;68.00
77985;DHT22;67177;47.240;-1.546;2023-02-07T08:38:08;2.40;68.00
77985;DHT22;67177;47.240;-1.546;2023-02-07T08:40:35;2.40;68.10
77985;DHT22;67177;47.240;-1.546;2023-02-07T08:43:01;2.40;67.80
77985;DHT22;67177;47.240;-1.546;2023-02-07T08:45:29;2.50;67.70
77985;DHT22;67177;47.240;-1.546;2023-02-07T08:47:55;2.50;67.50
77985;DHT22;67177;47.240;-1.546;2023-02-07T08:50:21;2.60;67.20
77985;DHT22;67177;47.240;-1.546;2023-02-07T08:52:46;2.60;67.30
77985;DHT22;67177;47.240;-1.546;2023-02-07T08:55:12;2.70;67.00
77985;DHT22;67177;47.240;-1.546;2023-02-07T08:57:38;2.70;66.90
77985;DHT22;67177;47.240;-1.546;2023-02-07T09:00:05;2.80;66.20
77985;DHT22;67177;47.240;-1.546;2023-02-07T09:02:32;2.80;66.30
77985;DHT22;67177;47.240;-1.546;2023-02-07T09:04:57;2.80;65.90
77985;DHT22;67177;47.240;-1.546;2023-02-07T09:07:23;2.80;65.40
77985;DHT22;67177;47.240;-1.546;2023-02-07T09:09:49;2.90;65.50
77985;DHT22;67177;47.240;-1.546;2023-02-07T09:12:14;2.90;65.60
77985;DHT22;67177;47.240;-1.546;2023-02-07T09:14:40;3.00;65.40
77985;DHT22;67177;47.240;-1.546;2023-02-07T09:17:06;3.00;65.00
77985;DHT22;67177;47.240;-1.546;2023-02-07T09:19:33;3.10;64.70
77985;DHT22;67177;47.240;-1.546;2023-02-07T09:21:59;3.10;64.30
77985;DHT22;67177;47.240;-1.546;2023-02-07T09:24:25;3.10;64.10
77985;DHT22;67177;47.240;-1.546;2023-02-07T09:26:51;3.10;64.00
77985;DHT22;67177;47.240;-1.546;2023-02-07T09:29:17;3.10;64.00
77985;DHT22;67177;47.240;-1.546;2023-02-07T09:31:43;3.20;64.10
77985;DHT22;67177;47.240;-1.546;2023-02-07T09:34:09;3.20;63.50
77985;DHT22;67177;47.240;-1.546;2023-02-07T09:36:35;3.20;63.10
77985;DHT22;67177;47.240;-1.546;2023-02-07T09:39:02;3.20;63.40
77985;DHT22;67177;47.240;-1.546;2023-02-07T09:41:30;3.30;63.60
77985;DHT22;67177;47.240;-1.546;2023-02-07T09:46:35;3.30;63.20
77985;DHT22;67177;47.240;-1.546;2023-02-07T09:49:09;3.30;63.20
77985;DHT22;67177;47.240;-1.546;2023-02-07T09:51:36;3.40;62.90
77985;DHT22;67177;47.240;-1.546;2023-02-07T09:54:15;3.40;62.60
77985;DHT22;67177;47.240;-1.546;2023-02-07T09:56:43;3.40;62.60
77985;DHT22;67177;47.240;-1.546;2023-02-07T10:01:48;3.50;62.70
77985;DHT22;67177;47.240;-1.546;2023-02-07T10:06:47;3.60;62.70
77985;DHT22;67177;47.240;-1.546;2023-02-07T10:09:16;3.70;62.50
77985;DHT22;67177;47.240;-1.546;2023-02-07T10:20:42;3.70;62.00
77985;DHT22;67177;47.240;-1.546;2023-02-07T10:31:15;4.20;61.30
77985;DHT22;67177;47.240;-1.546;2023-02-07T10:33:51;4.30;61.10
77985;DHT22;67177;47.240;-1.546;2023-02-07T10:36:19;4.30;61.30
77985;DHT22;67177;47.240;-1.546;2023-02-07T10:38:55;4.40;60.80
77985;DHT22;67177;47.240;-1.546;2023-02-07T10:41:36;4.40;60.60
77985;DHT22;67177;47.240;-1.546;2023-02-07T10:44:13;4.50;59.60
77985;DHT22;67177;47.240;-1.546;2023-02-07T10:46:43;4.50;59.30
77985;DHT22;67177;47.240;-1.546;2023-02-07T10:49:24;4.50;58.90
77985;DHT22;67177;47.240;-1.546;2023-02-07T10:51:51;4.50;59.10
77985;DHT22;67177;47.240;-1.546;2023-02-07T10:54:20;4.60;59.10
77985;DHT22;67177;47.240;-1.546;2023-02-07T10:56:55;4.60;58.70
77985;DHT22;67177;47.240;-1.546;2023-02-07T10:59:37;4.70;58.50
77985;DHT22;67177;47.240;-1.546;2023-02-07T11:04:54;4.70;58.40
77985;DHT22;67177;47.240;-1.546;2023-02-07T11:07:21;4.80;58.20
77985;DHT22;67177;47.240;-1.546;2023-02-07T11:09:48;4.80;57.20
77985;DHT22;67177;47.240;-1.546;2023-02-07T11:12:21;4.80;57.40
77985;DHT22;67177;47.240;-1.546;2023-02-07T11:15:02;4.90;57.60
77985;DHT22;67177;47.240;-1.546;2023-02-07T11:17:29;4.90;57.70
77985;DHT22;67177;47.240;-1.546;2023-02-07T11:19:55;4.90;57.40
77985;DHT22;67177;47.240;-1.546;2023-02-07T11:22:22;4.90;56.40
77985;DHT22;67177;47.240;-1.546;2023-02-07T11:24:52;4.90;56.80
77985;DHT22;67177;47.240;-1.546;2023-02-07T11:27:23;4.90;56.60
77985;DHT22;67177;47.240;-1.546;2023-02-07T11:32:18;5.00;56.70
77985;DHT22;67177;47.240;-1.546;2023-02-07T11:37:33;5.20;56.50
77985;DHT22;67177;47.240;-1.546;2023-02-07T11:40:20;5.20;56.40
77985;DHT22;67177;47.240;-1.546;2023-02-07T11:42:57;5.20;55.80
77985;DHT22;67177;47.240;-1.546;2023-02-07T11:45:23;5.10;55.50
77985;DHT22;67177;47.240;-1.546;2023-02-07T11:47:53;5.20;55.70
77985;DHT22;67177;47.240;-1.546;2023-02-07T11:50:25;5.20;55.50
77985;DHT22;67177;47.240;-1.546;2023-02-07T11:52:56;5.30;55.10
77985;DHT22;67177;47.240;-1.546;2023-02-07T11:55:35;5.20;55.30
77985;DHT22;67177;47.240;-1.546;2023-02-07T11:58:16;5.30;55.40
77985;DHT22;67177;47.240;-1.546;2023-02-07T12:00:43;5.20;55.30
77985;DHT22;67177;47.240;-1.546;2023-02-07T12:03:24;5.20;54.80
77985;DHT22;67177;47.240;-1.546;2023-02-07T12:05:59;5.40;55.00
77985;DHT22;67177;47.240;-1.546;2023-02-07T12:08:28;5.40;54.20
77985;DHT22;67177;47.240;-1.546;2023-02-07T12:11:05;5.40;54.30
77985;DHT22;67177;47.240;-1.546;2023-02-07T12:13:36;5.40;54.00
77985;DHT22;67177;47.240;-1.546;2023-02-07T12:16:08;5.30;53.90
77985;DHT22;67177;47.240;-1.546;2023-02-07T12:19:24;5.30;53.90
77985;DHT22;67177;47.240;-1.546;2023-02-07T12:21:51;5.40;53.40
77985;DHT22;67177;47.240;-1.546;2023-02-07T12:24:23;5.40;53.70
77985;DHT22;67177;47.240;-1.546;2023-02-07T12:27:04;5.40;54.00
77985;DHT22;67177;47.240;-1.546;2023-02-07T12:40:54;5.50;53.60
77985;DHT22;67177;47.240;-1.546;2023-02-07T12:43:29;5.80;53.60
77985;DHT22;67177;47.240;-1.546;2023-02-07T12:46:03;5.90;53.50
77985;DHT22;67177;47.240;-1.546;2023-02-07T12:48:51;5.90;53.10
77985;DHT22;67177;47.240;-1.546;2023-02-07T12:54:19;6.00;52.90
77985;DHT22;67177;47.240;-1.546;2023-02-07T13:04:36;6.00;52.00
77985;DHT22;67177;47.240;-1.546;2023-02-07T13:12:51;6.00;51.50
77985;DHT22;67177;47.240;-1.546;2023-02-07T13:15:39;6.10;51.40
77985;DHT22;67177;47.240;-1.546;2023-02-07T13:21:00;6.00;50.70
77985;DHT22;67177;47.240;-1.546;2023-02-07T13:23:32;6.00;51.10
77985;DHT22;67177;47.240;-1.546;2023-02-07T13:26:12;6.00;51.00
77985;DHT22;67177;47.240;-1.546;2023-02-07T13:28:53;6.10;50.80
77985;DHT22;67177;47.240;-1.546;2023-02-07T13:31:43;6.10;50.10
77985;DHT22;67177;47.240;-1.546;2023-02-07T13:34:14;6.10;49.30
77985;DHT22;67177;47.240;-1.546;2023-02-07T13:36:43;6.10;49.20
77985;DHT22;67177;47.240;-1.546;2023-02-07T13:39:49;6.10;49.50
77985;DHT22;67177;47.240;-1.546;2023-02-07T13:45:43;6.20;49.60
77985;DHT22;67177;47.240;-1.546;2023-02-07T13:50:51;6.20;49.40
77985;DHT22;67177;47.240;-1.546;2023-02-07T13:53:31;6.30;49.50
77985;DHT22;67177;47.240;-1.546;2023-02-07T13:56:08;6.30;49.40
77985;DHT22;67177;47.240;-1.546;2023-02-07T13:58:54;6.30;49.20
77985;DHT22;67177;47.240;-1.546;2023-02-07T14:01:49;6.30;49.40
77985;DHT22;67177;47.240;-1.546;2023-02-07T14:04:16;6.30;49.50
77985;DHT22;67177;47.240;-1.546;2023-02-07T14:06:55;6.30;49.70
77985;DHT22;67177;47.240;-1.546;2023-02-07T14:14:36;6.50;49.80
77985;DHT22;67177;47.240;-1.546;2023-02-07T14:17:03;6.50;49.90
77985;DHT22;67177;47.240;-1.546;2023-02-07T14:19:47;6.60;49.80
77985;DHT22;67177;47.240;-1.546;2023-02-07T14:22:16;6.60;49.60
77985;DHT22;67177;47.240;-1.546;2023-02-07T14:30:35;6.60;49.60
77985;DHT22;67177;47.240;-1.546;2023-02-07T14:33:15;6.60;49.70
77985;DHT22;67177;47.240;-1.546;2023-02-07T14:39:30;6.60;49.30
77985;DHT22;67177;47.240;-1.546;2023-02-07T14:41:50;6.60;49.20
77985;DHT22;67177;47.240;-1.546;2023-02-07T14:44:37;6.60;49.40
77985;DHT22;67177;47.240;-1.546;2023-02-07T14:47:06;6.60;49.40
77985;DHT22;67177;47.240;-1.546;2023-02-07T14:52:04;6.60;49.10
77985;DHT22;67177;47.240;-1.546;2023-02-07T15:02:39;6.60;49.20
77985;DHT22;67177;47.240;-1.546;2023-02-07T15:05:31;6.60;49.40
77985;DHT22;67177;47.240;-1.546;2023-02-07T15:08:08;6.60;49.50
77985;DHT22;67177;47.240;-1.546;2023-02-07T15:10:40;6.60;49.50
77985;DHT22;67177;47.240;-1.546;2023-02-07T15:13:22;6.50;49.60
77985;DHT22;67177;47.240;-1.546;2023-02-07T15:18:21;6.50;49.70
77985;DHT22;67177;47.240;-1.546;2023-02-07T15:20:55;6.50;49.80
77985;DHT22;67177;47.240;-1.546;2023-02-07T15:23:22;6.50;50.00
77985;DHT22;67177;47.240;-1.546;2023-02-07T15:25:49;6.50;50.20
77985;DHT22;67177;47.240;-1.546;2023-02-07T15:28:26;6.60;50.30
77985;DHT22;67177;47.240;-1.546;2023-02-07T15:31:11;6.60;50.40
77985;DHT22;67177;47.240;-1.546;2023-02-07T15:33:40;6.60;50.30
77985;DHT22;67177;47.240;-1.546;2023-02-07T15:36:37;6.60;50.30
77985;DHT22;67177;47.240;-1.546;2023-02-07T15:39:06;6.60;50.40
77985;DHT22;67177;47.240;-1.546;2023-02-07T15:41:32;6.60;50.50
77985;DHT22;67177;47.240;-1.546;2023-02-07T15:44:03;6.60;50.50
77985;DHT22;67177;47.240;-1.546;2023-02-07T15:46:57;6.70;50.60
77985;DHT22;67177;47.240;-1.546;2023-02-07T15:52:21;6.70;50.60
77985;DHT22;67177;47.240;-1.546;2023-02-07T15:54:50;6.70;50.80
77985;DHT22;67177;47.240;-1.546;2023-02-07T15:57:29;6.60;50.80
77985;DHT22;67177;47.240;-1.546;2023-02-07T16:00:27;6.60;50.80
77985;DHT22;67177;47.240;-1.546;2023-02-07T16:03:17;6.60;50.80
77985;DHT22;67177;47.240;-1.546;2023-02-07T16:05:43;6.50;50.90
77985;DHT22;67177;47.240;-1.546;2023-02-07T16:08:38;6.50;50.80
77985;DHT22;67177;47.240;-1.546;2023-02-07T16:11:35;6.50;51.00
77985;DHT22;67177;47.240;-1.546;2023-02-07T16:14:21;6.40;51.00
77985;DHT22;67177;47.240;-1.546;2023-02-07T16:16:52;6.40;50.90
77985;DHT22;67177;47.240;-1.546;2023-02-07T16:19:26;6.40;51.10
77985;DHT22;67177;47.240;-1.546;2023-02-07T16:22:05;6.40;51.00
77985;DHT22;67177;47.240;-1.546;2023-02-07T16:24:37;6.30;51.20
77985;DHT22;67177;47.240;-1.546;2023-02-07T16:27:05;6.30;51.40
77985;DHT22;67177;47.240;-1.546;2023-02-07T16:29:32;6.30;51.40
77985;DHT22;67177;47.240;-1.546;2023-02-07T16:31:59;6.30;51.40
77985;DHT22;67177;47.240;-1.546;2023-02-07T16:34:24;6.30;51.60
77985;DHT22;67177;47.240;-1.546;2023-02-07T16:36:52;6.20;51.70
77985;DHT22;67177;47.240;-1.546;2023-02-07T16:39:18;6.20;51.80
77985;DHT22;67177;47.240;-1.546;2023-02-07T16:41:52;6.20;51.80
77985;DHT22;67177;47.240;-1.546;2023-02-07T16:44:22;6.10;51.90
77985;DHT22;67177;47.240;-1.546;2023-02-07T16:46:48;6.10;52.00
77985;DHT22;67177;47.240;-1.546;2023-02-07T16:49:18;6.10;52.10
77985;DHT22;67177;47.240;-1.546;2023-02-07T16:51:44;6.10;52.20
77985;DHT22;67177;47.240;-1.546;2023-02-07T16:54:10;6.00;52.30
77985;DHT22;67177;47.240;-1.546;2023-02-07T16:56:36;6.00;52.30
77985;DHT22;67177;47.240;-1.546;2023-02-07T16:59:03;6.00;52.40
77985;DHT22;67177;47.240;-1.546;2023-02-07T17:01:29;6.00;52.50
77985;DHT22;67177;47.240;-1.546;2023-02-07T17:03:55;5.90;52.60
77985;DHT22;67177;47.240;-1.546;2023-02-07T17:06:22;5.90;52.70
77985;DHT22;67177;47.240;-1.546;2023-02-07T17:08:49;5.90;52.80
77985;DHT22;67177;47.240;-1.546;2023-02-07T17:11:20;5.90;52.90
77985;DHT22;67177;47.240;-1.546;2023-02-07T17:13:57;5.80;53.00
77985;DHT22;67177;47.240;-1.546;2023-02-07T17:16:25;5.80;53.10
77985;DHT22;67177;47.240;-1.546;2023-02-07T17:18:56;5.70;53.20
77985;DHT22;67177;47.240;-1.546;2023-02-07T17:21:29;5.70;53.20
77985;DHT22;67177;47.240;-1.546;2023-02-07T17:23:55;5.70;53.40
77985;DHT22;67177;47.240;-1.546;2023-02-07T17:26:23;5.70;53.40
77985;DHT22;67177;47.240;-1.546;2023-02-07T17:28:53;5.70;53.40
77985;DHT22;67177;47.240;-1.546;2023-02-07T17:31:19;5.60;53.50
77985;DHT22;67177;47.240;-1.546;2023-02-07T17:33:45;5.60;53.70
77985;DHT22;67177;47.240;-1.546;2023-02-07T17:36:12;5.60;53.70
77985;DHT22;67177;47.240;-1.546;2023-02-07T17:38:38;5.60;53.80
77985;DHT22;67177;47.240;-1.546;2023-02-07T17:41:04;5.50;53.80
77985;DHT22;67177;47.240;-1.546;2023-02-07T17:43:30;5.50;54.10
77985;DHT22;67177;47.240;-1.546;2023-02-07T17:45:55;5.50;54.10
77985;DHT22;67177;47.240;-1.546;2023-02-07T17:48:21;5.50;54.20
77985;DHT22;67177;47.240;-1.546;2023-02-07T17:50:47;5.50;54.20
77985;DHT22;67177;47.240;-1.546;2023-02-07T17:53:12;5.40;54.20